sensor_id;sensor_type;location;lat;lon;timestamp;P1;durP1;ratioP1;P2;durP2;ratioP2
25123;SDS011;13104;51.030;4.686;2023-01-13T00:01:19;14.85;;;2.55;;
25123;SDS011;13104;51.030;4.686;2023-01-13T00:03:46;15.40;;;3.45;;
25123;SDS011;13104;51.030;4.686;2023-01-13T00:06:14;16.13;;;3.22;;
25123;SDS011;13104;51.030;4.686;2023-01-13T00:08:41;16.10;;;3.60;;
25123;SDS011;13104;51.030;4.686;2023-01-13T00:11:08;15.63;;;3.50;;
25123;SDS011;13104;51.030;4.686;2023-01-13T00:13:34;18.58;;;4.57;;
25123;SDS011;13104;51.030;4.686;2023-01-13T00:16:06;21.60;;;3.30;;
25123;SDS011;13104;51.030;4.686;2023-01-13T00:18:32;12.40;;;3.15;;
25123;SDS011;13104;51.030;4.686;2023-01-13T00:21:04;20.38;;;3.75;;
25123;SDS011;13104;51.030;4.686;2023-01-13T00:23:31;11.35;;;3.88;;
25123;SDS011;13104;51.030;4.686;2023-01-13T00:25:58;22.23;;;3.67;;
25123;SDS011;13104;51.030;4.686;2023-01-13T00:28:24;19.70;;;3.65;;
25123;SDS011;13104;51.030;4.686;2023-01-13T00:30:51;27.88;;;4.82;;
25123;SDS011;13104;51.030;4.686;2023-01-13T00:33:17;19.13;;;3.50;;
25123;SDS011;13104;51.030;4.686;2023-01-13T00:35:43;23.30;;;4.25;;
25123;SDS011;13104;51.030;4.686;2023-01-13T00:38:09;19.05;;;3.75;;
25123;SDS011;13104;51.030;4.686;2023-01-13T00:40:35;21.17;;;4.10;;
25123;SDS011;13104;51.030;4.686;2023-01-13T00:43:01;17.95;;;4.15;;
25123;SDS011;13104;51.030;4.686;2023-01-13T00:45:46;29.27;;;4.32;;
25123;SDS011;13104;51.030;4.686;2023-01-13T00:48:15;36.55;;;5.88;;
25123;SDS011;13104;51.030;4.686;2023-01-13T00:50:42;33.55;;;5.85;;
25123;SDS011;13104;51.030;4.686;2023-01-13T00:53:08;29.55;;;5.60;;
25123;SDS011;13104;51.030;4.686;2023-01-13T00:55:34;21.48;;;5.57;;
25123;SDS011;13104;51.030;4.686;2023-01-13T00:58:00;27.20;;;6.53;;
25123;SDS011;13104;51.030;4.686;2023-01-13T01:00:30;39.47;;;7.78;;
25123;SDS011;13104;51.030;4.686;2023-01-13T01:02:56;29.83;;;7.47;;
25123;SDS011;13104;51.030;4.686;2023-01-13T01:05:23;37.97;;;7.40;;
25123;SDS011;13104;51.030;4.686;2023-01-13T01:07:49;26.65;;;6.88;;
25123;SDS011;13104;51.030;4.686;2023-01-13T01:10:15;22.17;;;6.20;;
25123;SDS011;13104;51.030;4.686;2023-01-13T01:12:41;30.67;;;7.88;;
25123;SDS011;13104;51.030;4.686;2023-01-13T01:15:08;33.80;;;7.75;;
25123;SDS011;13104;51.030;4.686;2023-01-13T01:17:34;31.20;;;7.88;;
25123;SDS011;13104;51.030;4.686;2023-01-13T01:20:01;31.48;;;7.50;;
25123;SDS011;13104;51.030;4.686;2023-01-13T01:22:27;23.38;;;5.90;;
25123;SDS011;13104;51.030;4.686;2023-01-13T01:24:53;21.63;;;3.70;;
25123;SDS011;13104;51.030;4.686;2023-01-13T01:27:20;28.70;;;5.95;;
25123;SDS011;13104;51.030;4.686;2023-01-13T01:29:46;36.35;;;6.60;;
25123;SDS011;13104;51.030;4.686;2023-01-13T01:32:12;31.05;;;5.97;;
25123;SDS011;13104;51.030;4.686;2023-01-13T01:34:38;23.55;;;5.63;;
25123;SDS011;13104;51.030;4.686;2023-01-13T01:37:04;27.67;;;6.97;;
25123;SDS011;13104;51.030;4.686;2023-01-13T01:39:30;27.17;;;5.45;;
25123;SDS011;13104;51.030;4.686;2023-01-13T01:41:56;24.25;;;5.63;;
25123;SDS011;13104;51.030;4.686;2023-01-13T01:47:07;29.42;;;6.75;;
25123;SDS011;13104;51.030;4.686;2023-01-13T01:49:34;24.95;;;6.28;;
25123;SDS011;13104;51.030;4.686;2023-01-13T01:57:02;19.33;;;5.93;;
25123;SDS011;13104;51.030;4.686;2023-01-13T01:59:29;20.17;;;6.05;;
25123;SDS011;13104;51.030;4.686;2023-01-13T02:01:57;27.08;;;6.90;;
25123;SDS011;13104;51.030;4.686;2023-01-13T02:04:24;28.30;;;7.47;;
25123;SDS011;13104;51.030;4.686;2023-01-13T02:06:52;21.08;;;6.45;;
25123;SDS011;13104;51.030;4.686;2023-01-13T02:09:20;28.25;;;6.22;;
25123;SDS011;13104;51.030;4.686;2023-01-13T02:11:46;19.02;;;3.35;;
25123;SDS011;13104;51.030;4.686;2023-01-13T02:14:31;23.88;;;3.85;;
25123;SDS011;13104;51.030;4.686;2023-01-13T02:25:10;24.52;;;6.40;;
25123;SDS011;13104;51.030;4.686;2023-01-13T02:30:07;17.63;;;5.78;;
25123;SDS011;13104;51.030;4.686;2023-01-13T02:35:31;19.85;;;5.32;;
25123;SDS011;13104;51.030;4.686;2023-01-13T02:38:00;22.95;;;3.75;;
25123;SDS011;13104;51.030;4.686;2023-01-13T02:46:02;25.60;;;6.05;;
25123;SDS011;13104;51.030;4.686;2023-01-13T02:48:29;23.02;;;6.05;;
25123;SDS011;13104;51.030;4.686;2023-01-13T02:50:58;19.02;;;5.90;;
25123;SDS011;13104;51.030;4.686;2023-01-13T02:53:26;22.63;;;5.93;;
25123;SDS011;13104;51.030;4.686;2023-01-13T02:55:53;18.85;;;5.30;;
25123;SDS011;13104;51.030;4.686;2023-01-13T02:58:21;22.95;;;6.35;;
25123;SDS011;13104;51.030;4.686;2023-01-13T03:00:49;22.33;;;6.45;;
25123;SDS011;13104;51.030;4.686;2023-01-13T03:03:15;24.13;;;6.70;;
25123;SDS011;13104;51.030;4.686;2023-01-13T03:05:43;18.90;;;4.00;;
25123;SDS011;13104;51.030;4.686;2023-01-13T03:19:13;21.08;;;3.58;;
25123;SDS011;13104;51.030;4.686;2023-01-13T03:21:50;28.50;;;4.45;;
25123;SDS011;13104;51.030;4.686;2023-01-13T03:24:24;23.27;;;3.50;;
25123;SDS011;13104;51.030;4.686;2023-01-13T03:27:16;32.65;;;4.13;;
25123;SDS011;13104;51.030;4.686;2023-01-13T03:29:40;31.02;;;3.90;;
25123;SDS011;13104;51.030;4.686;2023-01-13T03:37:15;28.80;;;3.35;;
25123;SDS011;13104;51.030;4.686;2023-01-13T03:39:48;22.88;;;4.00;;
25123;SDS011;13104;51.030;4.686;2023-01-13T03:42:20;17.95;;;3.58;;
25123;SDS011;13104;51.030;4.686;2023-01-13T03:52:10;23.23;;;3.60;;
25123;SDS011;13104;51.030;4.686;2023-01-13T03:54:41;16.85;;;3.35;;
25123;SDS011;13104;51.030;4.686;2023-01-13T03:57:09;20.88;;;2.75;;
25123;SDS011;13104;51.030;4.686;2023-01-13T03:59:40;26.83;;;4.00;;
25123;SDS011;13104;51.030;4.686;2023-01-13T04:04:55;19.13;;;3.83;;
25123;SDS011;13104;51.030;4.686;2023-01-13T04:07:25;16.67;;;3.80;;
25123;SDS011;13104;51.030;4.686;2023-01-13T04:09:56;18.67;;;3.67;;
25123;SDS011;13104;51.030;4.686;2023-01-13T04:14:52;14.30;;;3.95;;
25123;SDS011;13104;51.030;4.686;2023-01-13T04:17:19;23.08;;;4.20;;
25123;SDS011;13104;51.030;4.686;2023-01-13T04:19:45;15.25;;;3.88;;
25123;SDS011;13104;51.030;4.686;2023-01-13T04:22:11;11.73;;;2.60;;
25123;SDS011;13104;51.030;4.686;2023-01-13T04:24:37;16.45;;;3.90;;
25123;SDS011;13104;51.030;4.686;2023-01-13T04:27:03;19.42;;;4.75;;
25123;SDS011;13104;51.030;4.686;2023-01-13T04:29:30;19.30;;;5.22;;
25123;SDS011;13104;51.030;4.686;2023-01-13T04:31:56;13.38;;;4.78;;
25123;SDS011;13104;51.030;4.686;2023-01-13T04:34:22;13.77;;;4.40;;
25123;SDS011;13104;51.030;4.686;2023-01-13T04:36:48;11.13;;;5.20;;
25123;SDS011;13104;51.030;4.686;2023-01-13T04:39:14;19.50;;;7.00;;
25123;SDS011;13104;51.030;4.686;2023-01-13T04:41:40;14.15;;;5.45;;
25123;SDS011;13104;51.030;4.686;2023-01-13T04:44:21;21.27;;;5.90;;
25123;SDS011;13104;51.030;4.686;2023-01-13T04:46:48;22.15;;;2.53;;
25123;SDS011;13104;51.030;4.686;2023-01-13T04:49:14;20.33;;;5.57;;
25123;SDS011;13104;51.030;4.686;2023-01-13T04:51:40;13.85;;;5.75;;
25123;SDS011;13104;51.030;4.686;2023-01-13T04:54:06;18.08;;;6.50;;
25123;SDS011;13104;51.030;4.686;2023-01-13T04:56:32;15.40;;;5.97;;
25123;SDS011;13104;51.030;4.686;2023-01-13T04:58:58;22.90;;;8.50;;
25123;SDS011;13104;51.030;4.686;2023-01-13T05:01:24;19.45;;;6.28;;
25123;SDS011;13104;51.030;4.686;2023-01-13T05:03:50;17.10;;;6.18;;
25123;SDS011;13104;51.030;4.686;2023-01-13T05:06:16;18.95;;;5.22;;
25123;SDS011;13104;51.030;4.686;2023-01-13T05:08:43;14.68;;;4.57;;
25123;SDS011;13104;51.030;4.686;2023-01-13T05:11:09;20.55;;;5.80;;
25123;SDS011;13104;51.030;4.686;2023-01-13T05:13:54;20.15;;;4.68;;
25123;SDS011;13104;51.030;4.686;2023-01-13T05:16:38;21.13;;;5.28;;
25123;SDS011;13104;51.030;4.686;2023-01-13T05:19:23;15.00;;;4.78;;
25123;SDS011;13104;51.030;4.686;2023-01-13T05:21:49;19.70;;;4.32;;
25123;SDS011;13104;51.030;4.686;2023-01-13T05:24:34;11.82;;;3.90;;
25123;SDS011;13104;51.030;4.686;2023-01-13T05:27:18;12.02;;;2.47;;
25123;SDS011;13104;51.030;4.686;2023-01-13T05:29:45;10.40;;;3.35;;
25123;SDS011;13104;51.030;4.686;2023-01-13T05:32:11;13.90;;;3.83;;
25123;SDS011;13104;51.030;4.686;2023-01-13T05:34:38;17.13;;;4.03;;
25123;SDS011;13104;51.030;4.686;2023-01-13T05:37:05;10.75;;;3.55;;
25123;SDS011;13104;51.030;4.686;2023-01-13T05:39:32;14.25;;;3.55;;
25123;SDS011;13104;51.030;4.686;2023-01-13T05:45:15;23.33;;;3.75;;
25123;SDS011;13104;51.030;4.686;2023-01-13T05:47:42;14.30;;;3.47;;
25123;SDS011;13104;51.030;4.686;2023-01-13T05:50:08;13.20;;;3.75;;
25123;SDS011;13104;51.030;4.686;2023-01-13T05:52:34;14.45;;;3.60;;
25123;SDS011;13104;51.030;4.686;2023-01-13T05:55:00;14.48;;;4.05;;
25123;SDS011;13104;51.030;4.686;2023-01-13T05:57:26;15.77;;;3.65;;
25123;SDS011;13104;51.030;4.686;2023-01-13T05:59:54;14.75;;;3.88;;
25123;SDS011;13104;51.030;4.686;2023-01-13T06:02:21;15.60;;;4.13;;
25123;SDS011;13104;51.030;4.686;2023-01-13T06:04:48;12.80;;;2.88;;
25123;SDS011;13104;51.030;4.686;2023-01-13T06:07:14;20.10;;;3.80;;
25123;SDS011;13104;51.030;4.686;2023-01-13T06:09:40;16.98;;;4.00;;
25123;SDS011;13104;51.030;4.686;2023-01-13T06:12:09;22.70;;;3.33;;
25123;SDS011;13104;51.030;4.686;2023-01-13T06:14:35;18.08;;;3.95;;
25123;SDS011;13104;51.030;4.686;2023-01-13T06:17:08;16.10;;;3.42;;
25123;SDS011;13104;51.030;4.686;2023-01-13T06:19:34;22.40;;;3.35;;
25123;SDS011;13104;51.030;4.686;2023-01-13T06:22:44;18.30;;;3.15;;
25123;SDS011;13104;51.030;4.686;2023-01-13T06:24:50;22.58;;;3.45;;
25123;SDS011;13104;51.030;4.686;2023-01-13T06:27:18;20.77;;;3.20;;
25123;SDS011;13104;51.030;4.686;2023-01-13T06:29:44;15.55;;;3.70;;
25123;SDS011;13104;51.030;4.686;2023-01-13T06:32:11;27.15;;;3.70;;
25123;SDS011;13104;51.030;4.686;2023-01-13T06:34:39;24.83;;;2.85;;
25123;SDS011;13104;51.030;4.686;2023-01-13T06:37:06;21.92;;;3.83;;
25123;SDS011;13104;51.030;4.686;2023-01-13T06:39:32;18.15;;;3.20;;
25123;SDS011;13104;51.030;4.686;2023-01-13T06:41:59;18.10;;;4.10;;
25123;SDS011;13104;51.030;4.686;2023-01-13T06:44:45;17.90;;;3.03;;
25123;SDS011;13104;51.030;4.686;2023-01-13T06:47:11;16.58;;;3.25;;
25123;SDS011;13104;51.030;4.686;2023-01-13T06:49:38;14.82;;;2.95;;
25123;SDS011;13104;51.030;4.686;2023-01-13T06:52:04;20.60;;;2.45;;
25123;SDS011;13104;51.030;4.686;2023-01-13T06:54:30;17.05;;;4.13;;
25123;SDS011;13104;51.030;4.686;2023-01-13T06:56:56;13.68;;;5.45;;
25123;SDS011;13104;51.030;4.686;2023-01-13T06:59:22;21.02;;;5.13;;
25123;SDS011;13104;51.030;4.686;2023-01-13T07:01:49;23.83;;;3.10;;
25123;SDS011;13104;51.030;4.686;2023-01-13T07:04:15;23.08;;;5.45;;
25123;SDS011;13104;51.030;4.686;2023-01-13T07:06:41;21.27;;;4.40;;
25123;SDS011;13104;51.030;4.686;2023-01-13T07:09:07;27.70;;;5.88;;
25123;SDS011;13104;51.030;4.686;2023-01-13T07:11:34;18.70;;;5.55;;
25123;SDS011;13104;51.030;4.686;2023-01-13T07:14:00;23.17;;;5.38;;
25123;SDS011;13104;51.030;4.686;2023-01-13T07:16:44;29.42;;;5.18;;
25123;SDS011;13104;51.030;4.686;2023-01-13T07:19:11;21.70;;;3.40;;
25123;SDS011;13104;51.030;4.686;2023-01-13T07:21:37;31.23;;;5.57;;
25123;SDS011;13104;51.030;4.686;2023-01-13T07:24:03;26.05;;;4.15;;
25123;SDS011;13104;51.030;4.686;2023-01-13T07:26:29;26.08;;;4.03;;
25123;SDS011;13104;51.030;4.686;2023-01-13T07:28:56;31.40;;;4.22;;
25123;SDS011;13104;51.030;4.686;2023-01-13T07:31:22;23.10;;;4.00;;
25123;SDS011;13104;51.030;4.686;2023-01-13T07:33:50;32.65;;;4.35;;
25123;SDS011;13104;51.030;4.686;2023-01-13T07:36:16;29.10;;;3.95;;
25123;SDS011;13104;51.030;4.686;2023-01-13T07:38:42;24.92;;;3.70;;
25123;SDS011;13104;51.030;4.686;2023-01-13T07:41:10;27.33;;;3.60;;
25123;SDS011;13104;51.030;4.686;2023-01-13T07:43:55;23.00;;;4.05;;
25123;SDS011;13104;51.030;4.686;2023-01-13T07:46:22;30.10;;;4.38;;
25123;SDS011;13104;51.030;4.686;2023-01-13T07:48:48;33.28;;;4.55;;
25123;SDS011;13104;51.030;4.686;2023-01-13T07:51:14;36.80;;;5.50;;
25123;SDS011;13104;51.030;4.686;2023-01-13T07:53:40;25.05;;;3.53;;
25123;SDS011;13104;51.030;4.686;2023-01-13T07:56:06;32.85;;;5.45;;
25123;SDS011;13104;51.030;4.686;2023-01-13T07:58:34;24.75;;;4.82;;
25123;SDS011;13104;51.030;4.686;2023-01-13T08:01:05;34.55;;;5.30;;
25123;SDS011;13104;51.030;4.686;2023-01-13T08:03:32;30.83;;;5.03;;
25123;SDS011;13104;51.030;4.686;2023-01-13T08:05:59;22.13;;;4.57;;
25123;SDS011;13104;51.030;4.686;2023-01-13T08:08:25;30.48;;;4.40;;
25123;SDS011;13104;51.030;4.686;2023-01-13T08:10:52;24.90;;;4.80;;
25123;SDS011;13104;51.030;4.686;2023-01-13T08:13:18;23.92;;;4.25;;
25123;SDS011;13104;51.030;4.686;2023-01-13T08:15:46;31.10;;;4.93;;
25123;SDS011;13104;51.030;4.686;2023-01-13T08:18:12;39.13;;;6.07;;
25123;SDS011;13104;51.030;4.686;2023-01-13T08:20:38;25.60;;;4.90;;
25123;SDS011;13104;51.030;4.686;2023-01-13T08:23:05;27.98;;;5.13;;
25123;SDS011;13104;51.030;4.686;2023-01-13T08:25:31;24.38;;;4.40;;
25123;SDS011;13104;51.030;4.686;2023-01-13T08:27:57;31.85;;;5.53;;
25123;SDS011;13104;51.030;4.686;2023-01-13T08:30:24;25.77;;;5.38;;
25123;SDS011;13104;51.030;4.686;2023-01-13T08:32:51;27.95;;;5.72;;
25123;SDS011;13104;51.030;4.686;2023-01-13T08:35:17;30.63;;;5.55;;
25123;SDS011;13104;51.030;4.686;2023-01-13T08:37:44;31.38;;;5.10;;
25123;SDS011;13104;51.030;4.686;2023-01-13T08:40:11;28.15;;;4.20;;
25123;SDS011;13104;51.030;4.686;2023-01-13T08:42:38;22.35;;;4.97;;
25123;SDS011;13104;51.030;4.686;2023-01-13T08:45:05;38.85;;;6.20;;
25123;SDS011;13104;51.030;4.686;2023-01-13T08:47:31;28.48;;;5.10;;
25123;SDS011;13104;51.030;4.686;2023-01-13T08:49:57;25.45;;;4.28;;
25123;SDS011;13104;51.030;4.686;2023-01-13T08:52:23;26.13;;;5.97;;
25123;SDS011;13104;51.030;4.686;2023-01-13T08:54:49;29.00;;;5.88;;
25123;SDS011;13104;51.030;4.686;2023-01-13T08:57:16;25.20;;;5.70;;
25123;SDS011;13104;51.030;4.686;2023-01-13T08:59:44;24.25;;;4.85;;
25123;SDS011;13104;51.030;4.686;2023-01-13T09:02:13;30.52;;;5.13;;
25123;SDS011;13104;51.030;4.686;2023-01-13T09:04:40;25.10;;;4.93;;
25123;SDS011;13104;51.030;4.686;2023-01-13T09:07:06;27.63;;;5.05;;
25123;SDS011;13104;51.030;4.686;2023-01-13T09:09:32;28.40;;;5.43;;
25123;SDS011;13104;51.030;4.686;2023-01-13T09:11:58;26.40;;;4.63;;
25123;SDS011;13104;51.030;4.686;2023-01-13T09:14:43;26.90;;;5.13;;
25123;SDS011;13104;51.030;4.686;2023-01-13T09:17:09;28.95;;;5.13;;
25123;SDS011;13104;51.030;4.686;2023-01-13T09:19:35;28.65;;;4.75;;
25123;SDS011;13104;51.030;4.686;2023-01-13T09:22:01;27.95;;;5.13;;
25123;SDS011;13104;51.030;4.686;2023-01-13T09:24:28;31.90;;;4.78;;
25123;SDS011;13104;51.030;4.686;2023-01-13T09:26:54;28.90;;;4.72;;
25123;SDS011;13104;51.030;4.686;2023-01-13T09:29:20;28.70;;;4.75;;
25123;SDS011;13104;51.030;4.686;2023-01-13T09:31:46;28.38;;;4.00;;
25123;SDS011;13104;51.030;4.686;2023-01-13T09:34:14;26.42;;;5.40;;
25123;SDS011;13104;51.030;4.686;2023-01-13T09:36:59;22.02;;;4.95;;
25123;SDS011;13104;51.030;4.686;2023-01-13T09:39:25;27.77;;;4.22;;
25123;SDS011;13104;51.030;4.686;2023-01-13T09:41:55;23.02;;;4.18;;
25123;SDS011;13104;51.030;4.686;2023-01-13T09:45:01;28.73;;;4.78;;
25123;SDS011;13104;51.030;4.686;2023-01-13T09:47:33;28.23;;;5.28;;
25123;SDS011;13104;51.030;4.686;2023-01-13T09:50:23;24.88;;;4.43;;
25123;SDS011;13104;51.030;4.686;2023-01-13T09:52:46;32.63;;;4.70;;
25123;SDS011;13104;51.030;4.686;2023-01-13T09:55:17;26.55;;;5.13;;
25123;SDS011;13104;51.030;4.686;2023-01-13T09:57:44;28.02;;;5.25;;
25123;SDS011;13104;51.030;4.686;2023-01-13T10:00:11;30.77;;;4.53;;
25123;SDS011;13104;51.030;4.686;2023-01-13T10:05:12;28.30;;;4.00;;
25123;SDS011;13104;51.030;4.686;2023-01-13T10:07:45;25.30;;;4.65;;
25123;SDS011;13104;51.030;4.686;2023-01-13T10:10:14;26.27;;;4.60;;
25123;SDS011;13104;51.030;4.686;2023-01-13T10:12:41;31.13;;;4.50;;
25123;SDS011;13104;51.030;4.686;2023-01-13T10:17:55;39.63;;;5.20;;
25123;SDS011;13104;51.030;4.686;2023-01-13T10:20:25;32.67;;;4.72;;
25123;SDS011;13104;51.030;4.686;2023-01-13T10:25:27;27.17;;;5.50;;
25123;SDS011;13104;51.030;4.686;2023-01-13T10:28:01;35.15;;;6.85;;
25123;SDS011;13104;51.030;4.686;2023-01-13T10:30:32;29.23;;;5.57;;
25123;SDS011;13104;51.030;4.686;2023-01-13T10:32:59;35.60;;;4.60;;
25123;SDS011;13104;51.030;4.686;2023-01-13T10:38:15;27.10;;;4.75;;
25123;SDS011;13104;51.030;4.686;2023-01-13T10:40:50;34.42;;;5.47;;
25123;SDS011;13104;51.030;4.686;2023-01-13T10:43:17;27.30;;;4.97;;
25123;SDS011;13104;51.030;4.686;2023-01-13T10:45:50;29.27;;;4.90;;
25123;SDS011;13104;51.030;4.686;2023-01-13T10:48:16;29.13;;;4.47;;
25123;SDS011;13104;51.030;4.686;2023-01-13T10:50:43;28.52;;;5.68;;
25123;SDS011;13104;51.030;4.686;2023-01-13T10:53:16;24.77;;;5.03;;
25123;SDS011;13104;51.030;4.686;2023-01-13T10:55:42;28.85;;;4.38;;
25123;SDS011;13104;51.030;4.686;2023-01-13T10:58:17;26.02;;;5.35;;
25123;SDS011;13104;51.030;4.686;2023-01-13T11:00:43;32.10;;;4.72;;
25123;SDS011;13104;51.030;4.686;2023-01-13T11:03:14;32.50;;;5.63;;
25123;SDS011;13104;51.030;4.686;2023-01-13T11:05:46;26.60;;;4.60;;
25123;SDS011;13104;51.030;4.686;2023-01-13T11:08:15;28.67;;;5.40;;
25123;SDS011;13104;51.030;4.686;2023-01-13T11:10:45;26.88;;;5.20;;
25123;SDS011;13104;51.030;4.686;2023-01-13T11:13:17;29.20;;;4.28;;
25123;SDS011;13104;51.030;4.686;2023-01-13T11:20:55;33.25;;;4.53;;
25123;SDS011;13104;51.030;4.686;2023-01-13T11:23:24;21.67;;;3.85;;
25123;SDS011;13104;51.030;4.686;2023-01-13T11:25:54;32.17;;;5.05;;
25123;SDS011;13104;51.030;4.686;2023-01-13T11:31:16;21.63;;;3.95;;
25123;SDS011;13104;51.030;4.686;2023-01-13T11:33:46;22.48;;;3.85;;
25123;SDS011;13104;51.030;4.686;2023-01-13T11:36:19;20.58;;;3.60;;
25123;SDS011;13104;51.030;4.686;2023-01-13T11:38:48;22.67;;;4.15;;
25123;SDS011;13104;51.030;4.686;2023-01-13T11:41:40;27.38;;;4.75;;
25123;SDS011;13104;51.030;4.686;2023-01-13T11:44:08;27.38;;;3.78;;
25123;SDS011;13104;51.030;4.686;2023-01-13T11:46:38;24.88;;;4.43;;
25123;SDS011;13104;51.030;4.686;2023-01-13T11:49:05;30.45;;;4.68;;
25123;SDS011;13104;51.030;4.686;2023-01-13T11:51:33;33.83;;;4.22;;
25123;SDS011;13104;51.030;4.686;2023-01-13T12:06:38;23.70;;;4.43;;
25123;SDS011;13104;51.030;4.686;2023-01-13T12:09:09;29.20;;;3.70;;
25123;SDS011;13104;51.030;4.686;2023-01-13T12:14:32;27.02;;;4.03;;
25123;SDS011;13104;51.030;4.686;2023-01-13T12:17:01;22.80;;;4.35;;
25123;SDS011;13104;51.030;4.686;2023-01-13T12:19:28;18.85;;;3.55;;
25123;SDS011;13104;51.030;4.686;2023-01-13T12:24:44;26.58;;;4.07;;
25123;SDS011;13104;51.030;4.686;2023-01-13T12:29:38;23.85;;;4.63;;
25123;SDS011;13104;51.030;4.686;2023-01-13T12:32:10;27.63;;;4.10;;
25123;SDS011;13104;51.030;4.686;2023-01-13T12:40:18;30.92;;;4.55;;
25123;SDS011;13104;51.030;4.686;2023-01-13T12:42:48;23.25;;;3.63;;
25123;SDS011;13104;51.030;4.686;2023-01-13T12:45:34;24.85;;;3.58;;
25123;SDS011;13104;51.030;4.686;2023-01-13T12:48:00;27.55;;;4.07;;
25123;SDS011;13104;51.030;4.686;2023-01-13T12:53:00;21.65;;;3.78;;
25123;SDS011;13104;51.030;4.686;2023-01-13T12:55:49;24.92;;;3.80;;
25123;SDS011;13104;51.030;4.686;2023-01-13T12:58:16;26.75;;;4.47;;
25123;SDS011;13104;51.030;4.686;2023-01-13T13:05:46;23.67;;;3.60;;
25123;SDS011;13104;51.030;4.686;2023-01-13T13:08:15;25.83;;;4.00;;
25123;SDS011;13104;51.030;4.686;2023-01-13T13:11:05;19.13;;;3.60;;
25123;SDS011;13104;51.030;4.686;2023-01-13T13:13:45;22.45;;;4.00;;
25123;SDS011;13104;51.030;4.686;2023-01-13T13:24:27;21.08;;;4.30;;
25123;SDS011;13104;51.030;4.686;2023-01-13T13:26:54;20.05;;;4.05;;
25123;SDS011;13104;51.030;4.686;2023-01-13T13:32:21;29.30;;;3.63;;
25123;SDS011;13104;51.030;4.686;2023-01-13T13:34:58;22.63;;;3.80;;
25123;SDS011;13104;51.030;4.686;2023-01-13T13:40:32;21.83;;;3.85;;
25123;SDS011;13104;51.030;4.686;2023-01-13T13:43:24;19.85;;;3.25;;
25123;SDS011;13104;51.030;4.686;2023-01-13T13:49:10;25.02;;;4.72;;
25123;SDS011;13104;51.030;4.686;2023-01-13T13:51:38;25.40;;;3.90;;
25123;SDS011;13104;51.030;4.686;2023-01-13T13:54:13;23.58;;;4.18;;
25123;SDS011;13104;51.030;4.686;2023-01-13T13:56:42;23.30;;;3.83;;
25123;SDS011;13104;51.030;4.686;2023-01-13T13:59:10;24.45;;;3.97;;
25123;SDS011;13104;51.030;4.686;2023-01-13T14:01:37;25.30;;;4.43;;
25123;SDS011;13104;51.030;4.686;2023-01-13T14:09:16;26.67;;;3.95;;
25123;SDS011;13104;51.030;4.686;2023-01-13T14:11:52;23.13;;;4.15;;
25123;SDS011;13104;51.030;4.686;2023-01-13T14:14:18;24.50;;;4.00;;
25123;SDS011;13104;51.030;4.686;2023-01-13T14:16:45;18.35;;;3.80;;
25123;SDS011;13104;51.030;4.686;2023-01-13T14:21:49;22.20;;;3.55;;
25123;SDS011;13104;51.030;4.686;2023-01-13T14:24:15;16.23;;;3.28;;
25123;SDS011;13104;51.030;4.686;2023-01-13T14:26:44;15.57;;;2.97;;
25123;SDS011;13104;51.030;4.686;2023-01-13T14:29:17;20.52;;;3.50;;
25123;SDS011;13104;51.030;4.686;2023-01-13T14:31:44;18.65;;;3.38;;
25123;SDS011;13104;51.030;4.686;2023-01-13T14:34:11;19.83;;;3.97;;
25123;SDS011;13104;51.030;4.686;2023-01-13T14:36:37;21.85;;;3.72;;
25123;SDS011;13104;51.030;4.686;2023-01-13T14:41:33;23.00;;;3.40;;
25123;SDS011;13104;51.030;4.686;2023-01-13T14:44:01;17.17;;;3.08;;
25123;SDS011;13104;51.030;4.686;2023-01-13T14:46:37;26.40;;;3.88;;
25123;SDS011;13104;51.030;4.686;2023-01-13T14:49:04;21.67;;;3.83;;
25123;SDS011;13104;51.030;4.686;2023-01-13T14:51:30;25.80;;;3.60;;
25123;SDS011;13104;51.030;4.686;2023-01-13T14:53:56;18.65;;;3.53;;
25123;SDS011;13104;51.030;4.686;2023-01-13T14:56:37;22.63;;;5.35;;
25123;SDS011;13104;51.030;4.686;2023-01-13T15:01:52;24.75;;;3.53;;
25123;SDS011;13104;51.030;4.686;2023-01-13T15:04:31;28.48;;;5.75;;
25123;SDS011;13104;51.030;4.686;2023-01-13T15:07:00;32.42;;;10.10;;
25123;SDS011;13104;51.030;4.686;2023-01-13T15:09:28;21.38;;;4.22;;
25123;SDS011;13104;51.030;4.686;2023-01-13T15:11:57;26.88;;;4.70;;
25123;SDS011;13104;51.030;4.686;2023-01-13T15:14:25;18.15;;;3.55;;
25123;SDS011;13104;51.030;4.686;2023-01-13T15:16:55;21.83;;;4.03;;
25123;SDS011;13104;51.030;4.686;2023-01-13T15:19:21;20.02;;;3.33;;
25123;SDS011;13104;51.030;4.686;2023-01-13T15:21:47;20.42;;;3.70;;
25123;SDS011;13104;51.030;4.686;2023-01-13T15:24:14;20.17;;;3.83;;
25123;SDS011;13104;51.030;4.686;2023-01-13T15:26:40;18.17;;;4.38;;
25123;SDS011;13104;51.030;4.686;2023-01-13T15:29:08;25.80;;;3.83;;
25123;SDS011;13104;51.030;4.686;2023-01-13T15:31:38;27.10;;;4.35;;
25123;SDS011;13104;51.030;4.686;2023-01-13T15:34:05;23.60;;;4.25;;
25123;SDS011;13104;51.030;4.686;2023-01-13T15:36:31;19.30;;;4.45;;
25123;SDS011;13104;51.030;4.686;2023-01-13T15:39:00;24.42;;;4.38;;
25123;SDS011;13104;51.030;4.686;2023-01-13T15:41:27;31.70;;;5.38;;
25123;SDS011;13104;51.030;4.686;2023-01-13T15:44:12;27.30;;;4.03;;
25123;SDS011;13104;51.030;4.686;2023-01-13T15:46:57;28.95;;;4.72;;
25123;SDS011;13104;51.030;4.686;2023-01-13T15:49:38;19.67;;;4.22;;
25123;SDS011;13104;51.030;4.686;2023-01-13T15:52:15;19.55;;;3.58;;
25123;SDS011;13104;51.030;4.686;2023-01-13T15:54:42;19.58;;;3.60;;
25123;SDS011;13104;51.030;4.686;2023-01-13T15:57:21;18.73;;;3.58;;
25123;SDS011;13104;51.030;4.686;2023-01-13T15:59:48;25.45;;;4.07;;
25123;SDS011;13104;51.030;4.686;2023-01-13T16:02:14;21.35;;;3.67;;
25123;SDS011;13104;51.030;4.686;2023-01-13T16:04:42;20.80;;;4.30;;
25123;SDS011;13104;51.030;4.686;2023-01-13T16:07:13;21.67;;;3.95;;
25123;SDS011;13104;51.030;4.686;2023-01-13T16:09:39;17.73;;;3.80;;
25123;SDS011;13104;51.030;4.686;2023-01-13T16:12:05;20.83;;;4.18;;
25123;SDS011;13104;51.030;4.686;2023-01-13T16:14:32;23.42;;;3.70;;
25123;SDS011;13104;51.030;4.686;2023-01-13T16:16:58;24.70;;;4.35;;
25123;SDS011;13104;51.030;4.686;2023-01-13T16:19:24;23.05;;;4.50;;
25123;SDS011;13104;51.030;4.686;2023-01-13T16:21:50;18.58;;;3.25;;
25123;SDS011;13104;51.030;4.686;2023-01-13T16:24:17;15.70;;;3.20;;
25123;SDS011;13104;51.030;4.686;2023-01-13T16:26:43;23.08;;;3.60;;
25123;SDS011;13104;51.030;4.686;2023-01-13T16:29:09;23.00;;;3.97;;
25123;SDS011;13104;51.030;4.686;2023-01-13T16:31:37;16.50;;;3.22;;
25123;SDS011;13104;51.030;4.686;2023-01-13T16:34:04;20.90;;;3.50;;
25123;SDS011;13104;51.030;4.686;2023-01-13T16:36:32;20.90;;;3.75;;
25123;SDS011;13104;51.030;4.686;2023-01-13T16:38:59;22.55;;;3.53;;
25123;SDS011;13104;51.030;4.686;2023-01-13T16:41:25;20.70;;;3.45;;
25123;SDS011;13104;51.030;4.686;2023-01-13T16:43:52;20.90;;;4.15;;
25123;SDS011;13104;51.030;4.686;2023-01-13T16:46:22;21.15;;;5.70;;
25123;SDS011;13104;51.030;4.686;2023-01-13T16:48:51;22.88;;;3.92;;
25123;SDS011;13104;51.030;4.686;2023-01-13T16:51:18;19.83;;;4.32;;
25123;SDS011;13104;51.030;4.686;2023-01-13T16:53:44;18.83;;;4.63;;
25123;SDS011;13104;51.030;4.686;2023-01-13T16:56:19;25.83;;;5.68;;
25123;SDS011;13104;51.030;4.686;2023-01-13T16:58:46;18.70;;;4.15;;
25123;SDS011;13104;51.030;4.686;2023-01-13T17:01:22;18.80;;;3.83;;
25123;SDS011;13104;51.030;4.686;2023-01-13T17:03:49;28.52;;;4.05;;
25123;SDS011;13104;51.030;4.686;2023-01-13T17:06:23;28.30;;;5.28;;